Bertopolis, Brazil
Current Conditions -  °F | °C
As of 6:00 PM on Sunday 23 Nov 2014 (Local Time) from SBPS Reporting Station
Scattered Clouds Scattered Clouds  
Wind Chill: 79°   Ceiling: Unl
Heat Index: 82°   Visibility: 6mi
Dew Point: 72°   Wind: 12mph
Humidity: 78%   Direction: 60°ENE
Pressure: 29.91"   Gusts: NA
Location:  17.06°S, 40.57°W
Report Text: SBPS 232000Z 06010KT 9999 FEW020 SCT040 26/22 Q1013
Loading
Personal Weather Stations






























Interactive Weather Map New forecast layout! Learn more

10-Day Weather Forecast

Advertisements
Track Severe Weather on mobile